Time;durP1;ratioP1;P1;durP2;ratioP2;P2;SDS_P1;SDS_P2;PMS_P1;PMS_P2;Temp;Humidity;BMP_temperature;BMP_pressure;BME280_temperature;BME280_humidity;BME280_pressure;Samples;Min_cycle;Max_cycle;Signal;HPM_P1;HPM_P2
2021/04/23 00:00:37;;;;;;;10.20;5.20;;;8.50;92.00;;;;;;4986074;28;20661;-80
2021/04/23 00:03:10;;;;;;;7.25;4.65;;;8.50;92.00;;;;;;4984874;28;20215;-81
2021/04/23 00:05:52;;;;;;;9.23;4.97;;;8.50;92.10;;;;;;4987650;28;20212;-80
2021/04/23 00:08:20;;;;;;;10.77;5.65;;;8.40;92.10;;;;;;4978548;28;20286;-82
2021/04/23 00:10:48;;;;;;;7.85;4.60;;;8.40;92.10;;;;;;4979002;28;20643;-80
2021/04/23 00:13:15;;;;;;;9.35;4.85;;;8.30;92.20;;;;;;4983607;28;20203;-80
2021/04/23 00:15:41;;;;;;;8.82;4.53;;;8.30;92.20;;;;;;4979404;28;20207;-80
2021/04/23 00:18:08;;;;;;;8.05;4.57;;;8.30;92.20;;;;;;4983359;28;20204;-81
2021/04/23 00:20:35;;;;;;;10.15;4.90;;;8.20;92.30;;;;;;4986445;28;20204;-79
2021/04/23 00:23:05;;;;;;;8.43;4.80;;;8.20;92.30;;;;;;4978301;28;20211;-79
2021/04/23 00:25:32;;;;;;;4.63;4.22;;;8.10;92.30;;;;;;4980562;28;20225;-82
2021/04/23 00:28:01;;;;;;;8.18;5.43;;;8.10;92.30;;;;;;4984653;28;20197;-80
2021/04/23 00:30:30;;;;;;;12.95;6.18;;;8.10;92.50;;;;;;4984399;28;20200;-79
2021/04/23 00:32:57;;;;;;;13.07;4.95;;;8.00;92.40;;;;;;4985060;28;20584;-80
2021/04/23 00:35:26;;;;;;;4.93;4.53;;;8.00;92.50;;;;;;4979022;28;20706;-82
2021/04/23 00:37:55;;;;;;;7.63;4.97;;;7.90;92.40;;;;;;4981161;28;20203;-79
2021/04/23 00:40:25;;;;;;;10.63;5.55;;;7.90;92.40;;;;;;4981015;28;20202;-80
2021/04/23 00:42:52;;;;;;;8.32;4.75;;;7.80;92.40;;;;;;4980672;28;20662;-79
2021/04/23 00:45:22;;;;;;;10.10;5.88;;;7.80;92.40;;;;;;4982883;28;20632;-81
2021/04/23 00:47:51;;;;;;;8.20;4.80;;;7.80;92.40;;;;;;4985224;28;20576;-80
2021/04/23 00:50:34;;;;;;;11.10;4.90;;;7.70;92.40;;;;;;4976476;28;20233;-80
2021/04/23 00:53:01;;;;;;;16.65;5.90;;;7.70;92.50;;;;;;4979591;28;20281;-80
2021/04/23 00:55:29;;;;;;;9.93;5.97;;;7.60;92.50;;;;;;4983262;28;20234;-79
2021/04/23 00:57:56;;;;;;;6.32;5.55;;;7.50;92.60;;;;;;4980563;28;20206;-80
2021/04/23 01:00:24;;;;;;;9.57;6.25;;;7.50;92.70;;;;;;4981293;28;20218;-80
2021/04/23 01:02:50;;;;;;;10.77;5.30;;;7.40;92.70;;;;;;4980146;28;20207;-82
2021/04/23 01:05:18;;;;;;;8.98;5.45;;;7.40;92.80;;;;;;4983999;28;20235;-80
2021/04/23 01:07:46;;;;;;;8.52;5.78;;;7.40;92.80;;;;;;4978525;28;20670;-80
2021/04/23 01:10:14;;;;;;;5.35;4.57;;;7.40;92.90;;;;;;4980225;28;20204;-79
2021/04/23 01:12:42;;;;;;;7.80;5.65;;;7.30;93.00;;;;;;4984465;28;20215;-80
2021/04/23 01:15:09;;;;;;;11.23;5.47;;;7.30;93.00;;;;;;4982615;28;20572;-80
2021/04/23 01:17:36;;;;;;;11.30;4.78;;;7.20;92.90;;;;;;4983367;28;20199;-80
2021/04/23 01:20:03;;;;;;;6.68;4.60;;;7.20;92.90;;;;;;4983159;28;20257;-79
2021/04/23 01:22:31;;;;;;;4.68;4.00;;;7.10;92.90;;;;;;4983679;28;20278;-80
2021/04/23 01:24:57;;;;;;;7.80;5.38;;;7.00;92.70;;;;;;4987556;28;20202;-80
2021/04/23 01:27:23;;;;;;;6.97;5.03;;;7.00;92.70;;;;;;4981235;28;20298;-80
2021/04/23 01:29:50;;;;;;;5.90;4.75;;;6.90;92.70;;;;;;4986645;28;20210;-79
2021/04/23 01:32:16;;;;;;;9.32;4.82;;;6.90;92.80;;;;;;4990235;28;20205;-80
2021/04/23 01:34:43;;;;;;;14.88;4.97;;;6.90;92.80;;;;;;4984344;28;20230;-80
2021/04/23 01:37:10;;;;;;;4.80;4.35;;;6.80;92.80;;;;;;4986435;28;20219;-80
2021/04/23 01:39:40;;;;;;;5.45;4.93;;;6.70;92.70;;;;;;4989637;28;20805;-81
2021/04/23 01:42:08;;;;;;;6.15;5.30;;;6.70;92.70;;;;;;4989392;28;20495;-81
2021/04/23 01:44:35;;;;;;;5.72;4.60;;;6.60;92.70;;;;;;4988262;28;20277;-79
2021/04/23 01:47:03;;;;;;;10.95;5.55;;;6.60;93.00;;;;;;4984801;28;20227;-78
2021/04/23 01:49:30;;;;;;;7.43;5.20;;;6.60;92.80;;;;;;4987439;28;20209;-78
2021/04/23 01:51:59;;;;;;;10.23;5.25;;;6.50;92.90;;;;;;4979887;28;20254;-80
2021/04/23 01:54:27;;;;;;;10.00;5.95;;;6.50;92.90;;;;;;4983812;28;20199;-81
2021/04/23 01:56:55;;;;;;;11.75;6.13;;;6.60;93.00;;;;;;4990322;28;20206;-79
2021/04/23 01:59:22;;;;;;;7.30;4.95;;;6.50;93.00;;;;;;4987932;28;20206;-80
2021/04/23 02:01:49;;;;;;;9.48;5.82;;;6.50;93.10;;;;;;4984511;28;20195;-79
2021/04/23 02:04:17;;;;;;;10.73;6.18;;;6.40;93.10;;;;;;4984410;28;21398;-78
2021/04/23 02:06:44;;;;;;;7.43;4.97;;;6.40;93.10;;;;;;4987521;28;20234;-78
2021/04/23 02:09:11;;;;;;;7.18;5.57;;;6.40;93.10;;;;;;4988695;28;20226;-79
2021/04/23 02:11:40;;;;;;;7.05;5.55;;;6.40;93.20;;;;;;4985009;28;20199;-79
2021/04/23 02:14:07;;;;;;;10.35;6.35;;;6.40;93.20;;;;;;4988040;28;20205;-79
2021/04/23 02:16:34;;;;;;;8.10;6.22;;;6.40;93.20;;;;;;4984751;28;20679;-78
2021/04/23 02:19:01;;;;;;;8.07;5.95;;;6.40;93.20;;;;;;4989668;28;20244;-79
2021/04/23 02:21:28;;;;;;;6.50;5.78;;;6.40;93.20;;;;;;4984718;28;20554;-77
2021/04/23 02:23:55;;;;;;;9.32;5.72;;;6.40;93.30;;;;;;4988872;28;20289;-78
2021/04/23 02:26:22;;;;;;;7.85;5.70;;;6.40;93.30;;;;;;4984318;28;20249;-78
2021/04/23 02:28:50;;;;;;;7.28;5.25;;;6.30;93.30;;;;;;4985490;28;20660;-78
2021/04/23 02:31:20;;;;;;;9.02;5.38;;;6.30;93.30;;;;;;4985900;28;20195;-80
2021/04/23 02:33:48;;;;;;;6.07;5.30;;;6.30;93.30;;;;;;4983742;28;20359;-78
2021/04/23 02:36:15;;;;;;;8.30;5.40;;;6.20;93.30;;;;;;4985483;28;20200;-78
2021/04/23 02:38:43;;;;;;;6.72;6.07;;;6.20;93.20;;;;;;4984271;28;20626;-79
2021/04/23 02:41:09;;;;;;;6.75;4.60;;;6.10;93.20;;;;;;4983309;28;20203;-78
2021/04/23 02:43:39;;;;;;;6.38;5.78;;;6.10;93.20;;;;;;4984155;28;20203;-80
2021/04/23 02:46:06;;;;;;;5.85;5.25;;;6.00;93.10;;;;;;4986587;28;20270;-78
2021/04/23 02:48:37;;;;;;;6.05;4.82;;;6.00;93.10;;;;;;4977568;28;20198;-78
2021/04/23 02:51:07;;;;;;;6.22;5.63;;;5.90;93.20;;;;;;4979492;28;20203;-78
2021/04/23 02:53:34;;;;;;;6.40;5.20;;;5.90;93.20;;;;;;4982875;28;20295;-78
2021/04/23 02:56:01;;;;;;;8.32;5.30;;;5.90;93.20;;;;;;4986960;28;20694;-78
2021/04/23 02:58:29;;;;;;;7.90;5.60;;;5.80;93.30;;;;;;4984816;28;20615;-79
2021/04/23 03:00:59;;;;;;;6.38;5.78;;;5.80;93.20;;;;;;4984659;28;20310;-78
2021/04/23 03:03:26;;;;;;;6.10;4.70;;;5.80;93.30;;;;;;4985775;28;20214;-80
2021/04/23 03:05:55;;;;;;;6.85;5.22;;;5.80;93.30;;;;;;4982498;28;20423;-81
2021/04/23 03:08:23;;;;;;;10.63;6.03;;;5.70;93.70;;;;;;4983918;28;22326;-78
2021/04/23 03:10:53;;;;;;;11.32;6.70;;;5.70;93.40;;;;;;4988467;28;20215;-78
2021/04/23 03:13:21;;;;;;;14.80;5.75;;;5.70;93.50;;;;;;4984441;28;20202;-79
2021/04/23 03:15:49;;;;;;;8.07;5.00;;;5.70;93.60;;;;;;4986027;28;20298;-79
2021/04/23 03:18:17;;;;;;;6.93;5.15;;;5.70;93.50;;;;;;4984342;28;20210;-78
2021/04/23 03:20:44;;;;;;;6.03;5.43;;;5.70;93.50;;;;;;4978494;28;20212;-78
2021/04/23 03:23:11;;;;;;;5.45;4.95;;;5.60;93.40;;;;;;4986684;28;20213;-77
2021/04/23 03:25:38;;;;;;;5.70;5.20;;;5.60;93.40;;;;;;4983002;28;20262;-78
2021/04/23 03:28:06;;;;;;;7.80;5.75;;;5.60;93.50;;;;;;4982730;28;20706;-79
2021/04/23 03:30:37;;;;;;;5.95;5.10;;;5.60;93.50;;;;;;4983815;28;20207;-78
2021/04/23 03:33:05;;;;;;;7.43;5.97;;;5.60;93.60;;;;;;4978074;28;20227;-78
2021/04/23 03:35:32;;;;;;;7.72;6.05;;;5.50;93.50;;;;;;4985658;28;20211;-80
2021/04/23 03:37:59;;;;;;;9.07;5.88;;;5.50;93.40;;;;;;4979298;28;20253;-77
2021/04/23 03:40:29;;;;;;;10.63;6.10;;;5.50;93.40;;;;;;4983082;28;20213;-78
2021/04/23 03:42:55;;;;;;;13.75;5.90;;;5.50;93.40;;;;;;4979368;28;20206;-78
2021/04/23 03:45:24;;;;;;;7.30;6.30;;;5.50;93.40;;;;;;4985392;28;20666;-78
2021/04/23 03:47:51;;;;;;;6.88;6.18;;;5.40;93.50;;;;;;4978613;28;20205;-78
2021/04/23 03:50:21;;;;;;;7.45;5.22;;;5.40;93.50;;;;;;4985907;28;20203;-78
2021/04/23 03:52:48;;;;;;;11.25;5.70;;;5.40;93.80;;;;;;4985487;28;20225;-78
2021/04/23 03:55:18;;;;;;;6.55;5.85;;;5.40;93.50;;;;;;4983313;28;20202;-78
2021/04/23 03:57:45;;;;;;;10.35;5.38;;;5.30;93.40;;;;;;4979825;28;20207;-78
2021/04/23 04:00:15;;;;;;;11.30;6.38;;;5.30;93.50;;;;;;4985639;28;20198;-80
2021/04/23 04:02:42;;;;;;;10.63;6.10;;;5.30;93.60;;;;;;4986398;28;20202;-78
2021/04/23 04:05:10;;;;;;;10.60;6.60;;;5.30;93.70;;;;;;4987005;28;20649;-78
2021/04/23 04:07:37;;;;;;;8.77;6.68;;;5.30;93.70;;;;;;4984408;28;20239;-77
2021/04/23 04:10:06;;;;;;;7.30;5.95;;;5.30;93.70;;;;;;4978208;28;20199;-78
2021/04/23 04:12:32;;;;;;;10.45;6.30;;;5.30;93.70;;;;;;4984170;28;20199;-79
2021/04/23 04:14:59;;;;;;;8.70;5.85;;;5.30;93.80;;;;;;4983696;28;20233;-78
2021/04/23 04:17:26;;;;;;;6.90;6.20;;;5.20;94.10;;;;;;4984987;28;20203;-78
2021/04/23 04:19:52;;;;;;;8.10;5.72;;;5.20;93.80;;;;;;4978915;28;20242;-78
2021/04/23 04:22:19;;;;;;;7.70;6.57;;;5.20;93.80;;;;;;4981427;28;20198;-77
2021/04/23 04:24:45;;;;;;;9.27;5.88;;;5.20;93.80;;;;;;4982467;28;20240;-78
2021/04/23 04:27:11;;;;;;;5.80;5.15;;;5.20;93.80;;;;;;4978189;28;20235;-77
2021/04/23 04:29:38;;;;;;;7.82;6.00;;;5.10;93.80;;;;;;4983726;28;20199;-78
2021/04/23 04:32:06;;;;;;;6.80;6.10;;;5.10;93.80;;;;;;4985346;28;20571;-78
2021/04/23 04:34:32;;;;;;;6.85;6.13;;;5.10;93.80;;;;;;4979897;28;20199;-79
2021/04/23 04:36:59;;;;;;;9.57;6.40;;;5.10;93.80;;;;;;4983558;28;20519;-79
2021/04/23 04:39:25;;;;;;;6.28;5.68;;;5.10;93.90;;;;;;4975550;28;20306;-78
2021/04/23 04:41:51;;;;;;;7.63;6.40;;;5.00;93.80;;;;;;4980260;28;20720;-78
2021/04/23 04:44:18;;;;;;;13.35;6.45;;;5.00;93.70;;;;;;4988574;28;20325;-78
2021/04/23 04:46:44;;;;;;;15.13;6.22;;;5.00;93.70;;;;;;4984202;28;20312;-79
2021/04/23 04:49:12;;;;;;;12.48;5.70;;;5.00;93.80;;;;;;4978944;28;20198;-78
2021/04/23 04:51:38;;;;;;;10.88;6.03;;;4.90;94.10;;;;;;4977642;28;20189;-78
2021/04/23 04:54:06;;;;;;;9.35;5.68;;;4.90;93.70;;;;;;4981904;28;20202;-78
2021/04/23 04:56:32;;;;;;;8.52;6.00;;;4.90;93.80;;;;;;4977429;28;20198;-78
2021/04/23 04:58:59;;;;;;;7.38;5.90;;;4.90;93.90;;;;;;4983173;28;20695;-78
2021/04/23 05:01:25;;;;;;;6.10;5.50;;;4.90;94.00;;;;;;4989411;28;20217;-78
2021/04/23 05:03:52;;;;;;;8.48;6.05;;;4.90;94.00;;;;;;4987093;28;20235;-78
2021/04/23 05:06:19;;;;;;;7.15;6.43;;;4.90;94.00;;;;;;4990516;28;20707;-78
2021/04/23 05:08:46;;;;;;;9.40;6.18;;;4.90;94.10;;;;;;4975753;28;20216;-79
2021/04/23 05:11:13;;;;;;;6.00;5.50;;;4.90;94.20;;;;;;4977260;28;20209;-79
2021/04/23 05:13:39;;;;;;;7.65;5.80;;;4.90;94.30;;;;;;4978603;28;20203;-78
2021/04/23 05:16:06;;;;;;;8.27;5.20;;;4.90;94.40;;;;;;4982082;28;20334;-78
2021/04/23 05:18:32;;;;;;;6.00;5.40;;;4.90;94.50;;;;;;4981904;28;20705;-78
2021/04/23 05:20:59;;;;;;;6.13;5.53;;;4.90;94.60;;;;;;4977566;28;20213;-80
2021/04/23 05:23:26;;;;;;;8.48;7.38;;;5.00;94.70;;;;;;4978105;28;20667;-79
2021/04/23 05:25:53;;;;;;;9.80;6.53;;;5.00;94.70;;;;;;4975216;28;20604;-81
2021/04/23 05:28:19;;;;;;;8.70;5.93;;;5.00;94.80;;;;;;4982436;28;20198;-78
2021/04/23 05:30:46;;;;;;;15.93;7.40;;;5.00;95.00;;;;;;4983470;28;20239;-78
2021/04/23 05:33:13;;;;;;;7.93;6.50;;;5.10;95.10;;;;;;4985643;28;20217;-78
2021/04/23 05:35:40;;;;;;;13.15;7.78;;;5.10;95.20;;;;;;4977463;28;20206;-78
2021/04/23 05:38:07;;;;;;;12.90;8.00;;;5.20;95.30;;;;;;4982497;28;20602;-77
2021/04/23 05:40:36;;;;;;;8.88;7.38;;;5.20;95.30;;;;;;4975988;28;20202;-78
2021/04/23 05:43:04;;;;;;;9.93;7.63;;;5.30;95.50;;;;;;4984016;28;20287;-78
2021/04/23 05:45:31;;;;;;;17.42;7.47;;;5.40;95.70;;;;;;4979200;28;20579;-77
2021/04/23 05:47:58;;;;;;;14.23;7.80;;;5.40;95.70;;;;;;4983122;28;20233;-78
2021/04/23 05:50:26;;;;;;;12.77;7.85;;;5.50;95.80;;;;;;4983987;28;20230;-79
2021/04/23 05:52:53;;;;;;;15.50;8.02;;;5.50;96.20;;;;;;4979187;28;20211;-78
2021/04/23 05:55:25;;;;;;;11.20;7.72;;;5.60;95.90;;;;;;4986776;28;20219;-78
2021/04/23 05:57:53;;;;;;;12.00;8.30;;;5.70;96.10;;;;;;4975524;28;20202;-78
2021/04/23 06:00:20;;;;;;;17.95;9.00;;;5.70;96.50;;;;;;4976756;28;20211;-80
2021/04/23 06:02:47;;;;;;;9.68;8.05;;;5.80;96.20;;;;;;4974295;28;20917;-81
2021/04/23 06:05:15;;;;;;;10.00;7.65;;;5.90;96.40;;;;;;4981032;28;20288;-78
2021/04/23 06:07:42;;;;;;;8.40;7.50;;;5.90;96.50;;;;;;4991112;28;20227;-78
2021/04/23 06:10:11;;;;;;;12.63;7.85;;;6.00;96.60;;;;;;4987009;28;20207;-79
2021/04/23 06:12:38;;;;;;;13.07;8.68;;;6.10;96.60;;;;;;4986199;28;20894;-78
2021/04/23 06:15:07;;;;;;;10.45;7.60;;;6.20;96.60;;;;;;4984020;28;20321;-80
2021/04/23 06:17:34;;;;;;;15.48;8.70;;;6.30;96.60;;;;;;4983263;28;20664;-78
2021/04/23 06:20:00;;;;;;;14.80;8.15;;;6.40;96.60;;;;;;4983820;28;20241;-79
2021/04/23 06:22:27;;;;;;;15.68;8.13;;;6.50;96.60;;;;;;4986751;28;20249;-79
2021/04/23 06:24:53;;;;;;;11.88;8.75;;;6.60;96.60;;;;;;4985235;28;20706;-79
2021/04/23 06:27:20;;;;;;;12.65;9.18;;;6.70;96.80;;;;;;4985760;28;20706;-79
2021/04/23 06:29:47;;;;;;;15.75;10.23;;;6.70;97.80;;;;;;4987240;28;20273;-80
2021/04/23 06:32:14;;;;;;;18.80;10.75;;;6.90;97.90;;;;;;4988182;28;20294;-80
2021/04/23 06:34:41;;;;;;;19.95;9.82;;;7.00;98.00;;;;;;4985836;28;20674;-79
2021/04/23 06:37:07;;;;;;;15.20;11.18;;;7.10;98.20;;;;;;4984521;28;20422;-78
2021/04/23 06:39:33;;;;;;;11.40;9.32;;;7.20;98.10;;;;;;4985756;28;20295;-79
2021/04/23 06:42:00;;;;;;;17.27;9.48;;;7.20;98.50;;;;;;4986551;28;20294;-79
2021/04/23 06:44:27;;;;;;;13.65;9.05;;;7.30;98.40;;;;;;4986743;28;20195;-79
2021/04/23 06:46:53;;;;;;;15.43;9.07;;;7.40;98.30;;;;;;4984566;28;20235;-80
2021/04/23 06:49:20;;;;;;;12.65;9.25;;;7.40;98.40;;;;;;4981655;28;20214;-81
2021/04/23 06:51:47;;;;;;;14.95;8.25;;;7.50;98.30;;;;;;4974076;28;20203;-78
2021/04/23 06:54:14;;;;;;;22.02;8.65;;;7.60;98.20;;;;;;4983494;28;20659;-78
2021/04/23 06:56:41;;;;;;;12.68;6.43;;;7.70;98.20;;;;;;4987621;28;20195;-78
2021/04/23 06:59:08;;;;;;;14.52;8.27;;;7.70;98.00;;;;;;4987581;28;20291;-79
2021/04/23 07:01:35;;;;;;;14.95;6.80;;;7.90;98.00;;;;;;4986165;28;20195;-79
2021/04/23 07:04:01;;;;;;;8.85;6.10;;;8.00;97.80;;;;;;4986763;28;20225;-78
2021/04/23 07:06:28;;;;;;;18.85;7.68;;;8.00;97.10;;;;;;4982269;28;20615;-78
2021/04/23 07:08:55;;;;;;;12.52;6.10;;;8.10;96.90;;;;;;4984934;28;20200;-80
2021/04/23 07:11:21;;;;;;;9.68;6.25;;;8.20;96.80;;;;;;4981944;28;20728;-78
2021/04/23 07:13:48;;;;;;;13.32;6.85;;;8.20;96.00;;;;;;4986544;28;20199;-78
2021/04/23 07:16:14;;;;;;;14.13;6.95;;;8.30;95.60;;;;;;4985200;28;20303;-79
2021/04/23 07:18:40;;;;;;;12.18;6.00;;;8.30;95.70;;;;;;4984163;28;20227;-80
2021/04/23 07:21:07;;;;;;;6.50;5.70;;;8.40;95.70;;;;;;4982954;28;20912;-78
2021/04/23 07:23:34;;;;;;;8.00;6.65;;;8.50;95.50;;;;;;4982751;28;20218;-79
2021/04/23 07:26:00;;;;;;;9.05;5.63;;;8.50;95.30;;;;;;4981737;28;20722;-78
2021/04/23 07:28:26;;;;;;;7.88;5.38;;;8.50;94.70;;;;;;4982227;28;20286;-79
2021/04/23 07:30:53;;;;;;;8.20;5.97;;;8.60;94.40;;;;;;4986078;28;20230;-78
2021/04/23 07:33:19;;;;;;;10.75;5.45;;;8.80;94.60;;;;;;4985870;28;20562;-78
2021/04/23 07:35:48;;;;;;;7.50;5.32;;;8.90;94.60;;;;;;4986706;28;20208;-78
2021/04/23 07:38:14;;;;;;;10.73;7.28;;;9.00;94.40;;;;;;4980298;28;20227;-77
2021/04/23 07:40:42;;;;;;;8.60;6.10;;;9.10;94.70;;;;;;4984053;28;20195;-78
2021/04/23 07:43:09;;;;;;;8.30;5.68;;;9.30;94.30;;;;;;4946961;28;20207;-81
2021/04/23 07:45:36;;;;;;;10.03;5.60;;;9.40;94.10;;;;;;4982872;28;20213;-77
2021/04/23 07:48:02;;;;;;;14.45;6.35;;;9.50;93.30;;;;;;4982017;28;20212;-80
2021/04/23 07:50:32;;;;;;;11.40;6.15;;;9.50;93.20;;;;;;4975037;28;20200;-78
2021/04/23 07:52:59;;;;;;;11.80;5.13;;;9.50;93.30;;;;;;4981187;28;20612;-79
2021/04/23 07:55:25;;;;;;;6.43;5.20;;;9.60;93.40;;;;;;4978264;28;20202;-77
2021/04/23 07:57:54;;;;;;;9.63;6.40;;;9.60;93.30;;;;;;4977998;28;20200;-78
2021/04/23 08:00:22;;;;;;;10.80;5.88;;;9.70;92.60;;;;;;4981703;28;20228;-78
2021/04/23 08:02:49;;;;;;;5.95;5.18;;;9.70;92.70;;;;;;4981787;28;20213;-78
2021/04/23 08:05:18;;;;;;;7.63;5.10;;;9.70;92.60;;;;;;4980057;28;20231;-79
2021/04/23 08:07:45;;;;;;;7.53;5.88;;;9.70;92.60;;;;;;4979305;28;20587;-78
2021/04/23 08:10:13;;;;;;;15.35;5.20;;;9.70;92.70;;;;;;4978915;28;20205;-78
2021/04/23 08:12:40;;;;;;;9.30;5.35;;;9.80;92.80;;;;;;4977145;28;20212;-77
2021/04/23 08:15:09;;;;;;;5.40;4.68;;;9.80;92.70;;;;;;4978613;28;20230;-80
2021/04/23 08:17:36;;;;;;;7.43;5.63;;;9.90;91.90;;;;;;4979424;28;20205;-78
2021/04/23 08:20:05;;;;;;;11.13;5.40;;;9.80;91.20;;;;;;4978755;28;20272;-81
2021/04/23 08:22:31;;;;;;;10.05;5.40;;;9.80;91.50;;;;;;4975253;28;20195;-76
2021/04/23 08:24:57;;;;;;;11.07;5.70;;;9.90;92.00;;;;;;4977478;28;20686;-80
2021/04/23 08:27:24;;;;;;;7.07;5.40;;;10.00;91.60;;;;;;4975401;28;20746;-78
2021/04/23 08:29:50;;;;;;;7.78;5.78;;;10.20;91.60;;;;;;4979110;28;20202;-79
2021/04/23 08:32:17;;;;;;;9.48;6.32;;;10.30;91.40;;;;;;4977507;28;20205;-78
2021/04/23 08:34:44;;;;;;;6.50;5.28;;;10.40;90.80;;;;;;4972971;28;20205;-78
2021/04/23 08:37:10;;;;;;;10.20;7.97;;;10.40;90.70;;;;;;4975867;28;20274;-78
2021/04/23 08:39:38;;;;;;;9.15;6.93;;;10.50;91.00;;;;;;4977879;28;20207;-78
2021/04/23 08:42:05;;;;;;;10.18;6.93;;;10.70;91.00;;;;;;4981250;28;20222;-78
2021/04/23 08:44:32;;;;;;;13.38;6.75;;;10.80;90.80;;;;;;4976260;28;20209;-77
2021/04/23 08:46:59;;;;;;;14.40;7.18;;;11.00;90.80;;;;;;4975153;28;20230;-78
2021/04/23 08:49:27;;;;;;;8.57;5.80;;;11.10;90.70;;;;;;4979112;28;20216;-80
2021/04/23 08:51:53;;;;;;;9.43;6.45;;;11.20;90.20;;;;;;4975192;28;20238;-78
2021/04/23 08:54:20;;;;;;;8.68;5.90;;;11.20;90.40;;;;;;4980530;28;20245;-79
2021/04/23 08:56:48;;;;;;;8.07;6.55;;;11.30;90.00;;;;;;4981061;28;20214;-79
2021/04/23 08:59:14;;;;;;;8.38;5.82;;;11.30;89.90;;;;;;4978018;28;20665;-81
2021/04/23 09:01:40;;;;;;;10.50;5.95;;;11.40;89.80;;;;;;4977612;28;20199;-80
2021/04/23 09:04:07;;;;;;;12.15;6.20;;;11.60;90.00;;;;;;4974986;28;20257;-82
2021/04/23 09:06:34;;;;;;;7.50;5.43;;;11.60;88.90;;;;;;4979088;28;20230;-80
2021/04/23 09:09:07;;;;;;;10.88;5.70;;;11.60;87.90;;;;;;4975764;28;20218;-80
2021/04/23 09:11:35;;;;;;;7.72;4.40;;;11.70;88.50;;;;;;4975202;28;20225;-80
2021/04/23 09:14:04;;;;;;;15.68;6.80;;;11.70;87.30;;;;;;4976741;28;20259;-81
2021/04/23 09:16:51;;;;;;;8.05;4.63;;;11.80;87.30;;;;;;4978136;28;20586;-79
2021/04/23 09:19:21;;;;;;;7.88;4.55;;;11.80;86.30;;;;;;4976812;28;20273;-79
2021/04/23 09:21:54;;;;;;;8.23;5.75;;;11.70;86.00;;;;;;4977707;28;20199;-79
2021/04/23 09:24:26;;;;;;;7.57;4.78;;;11.70;86.60;;;;;;4979133;28;20202;-79
2021/04/23 09:26:54;;;;;;;7.53;4.63;;;11.80;87.30;;;;;;4975739;28;20238;-80
2021/04/23 09:29:27;;;;;;;7.30;4.80;;;11.90;88.00;;;;;;4977412;28;20225;-85
2021/04/23 09:31:54;;;;;;;8.13;5.80;;;12.00;87.80;;;;;;4977814;28;20205;-79
2021/04/23 09:34:22;;;;;;;9.10;5.07;;;12.20;88.50;;;;;;4968979;28;21506;-78
2021/04/23 09:36:48;;;;;;;10.80;4.63;;;12.30;86.80;;;;;;4975498;28;20263;-78
2021/04/23 09:39:18;;;;;;;16.53;5.37;;;12.40;86.20;;;;;;4980178;28;20258;-78
2021/04/23 09:41:47;;;;;;;14.85;5.85;;;12.50;85.10;;;;;;4980295;28;20469;-79
2021/04/23 09:44:31;;;;;;;10.30;5.50;;;12.50;84.40;;;;;;4960254;28;20556;-79
2021/04/23 09:47:04;;;;;;;7.90;5.93;;;12.50;84.20;;;;;;4973101;28;20549;-79
2021/04/23 09:49:32;;;;;;;7.53;5.70;;;12.60;84.50;;;;;;4980569;28;20466;-78
2021/04/23 09:52:01;;;;;;;7.40;5.15;;;12.70;85.00;;;;;;4983143;28;20899;-79
2021/04/23 09:54:28;;;;;;;8.80;5.57;;;12.80;84.80;;;;;;4985456;28;20582;-79
2021/04/23 09:56:56;;;;;;;8.23;4.73;;;12.90;84.60;;;;;;4986854;28;20465;-79
2021/04/23 09:59:24;;;;;;;11.20;5.38;;;12.80;84.30;;;;;;4985392;28;20470;-79
2021/04/23 10:01:55;;;;;;;12.10;5.30;;;12.70;83.80;;;;;;4982576;28;20282;-79
2021/04/23 10:04:28;;;;;;;8.67;5.40;;;12.70;84.20;;;;;;4984724;28;20521;-79
2021/04/23 10:07:15;;;;;;;8.77;5.87;;;12.90;85.20;;;;;;4989511;28;20487;-79
2021/04/23 10:09:55;;;;;;;11.33;5.50;;;13.00;85.20;;;;;;4987783;28;20469;-80
2021/04/23 10:12:44;;;;;;;9.60;6.50;;;13.10;84.70;;;;;;4981822;28;20489;-79
2021/04/23 10:15:14;;;;;;;11.13;5.23;;;13.20;85.00;;;;;;4979253;28;20482;-79
2021/04/23 10:17:41;;;;;;;9.47;5.33;;;13.30;85.30;;;;;;4984965;28;20542;-81
2021/04/23 10:20:11;;;;;;;8.10;5.60;;;13.30;83.60;;;;;;4982467;28;21064;-79
2021/04/23 10:22:38;;;;;;;10.20;5.77;;;13.30;84.10;;;;;;4980668;28;20465;-79
2021/04/23 10:25:07;;;;;;;9.20;5.47;;;13.40;83.90;;;;;;4985009;28;20454;-79
2021/04/23 10:27:36;;;;;;;13.70;6.20;;;13.40;81.70;;;;;;4985377;28;21014;-80
2021/04/23 10:30:06;;;;;;;8.20;5.50;;;13.50;82.60;;;;;;4982111;28;20466;-79
2021/04/23 10:32:33;;;;;;;12.53;5.60;;;13.60;82.80;;;;;;4980190;28;20470;-81
2021/04/23 10:35:00;;;;;;;7.97;5.53;;;13.60;82.00;;;;;;4984766;28;20481;-79
2021/04/23 10:37:27;;;;;;;9.40;5.80;;;13.60;82.60;;;;;;4980680;28;20558;-82
2021/04/23 10:39:53;;;;;;;9.50;5.60;;;13.70;82.90;;;;;;4985018;28;20525;-80
2021/04/23 10:42:51;;;;;;;6.50;5.47;;;13.80;82.60;;;;;;4984010;28;20495;-79
2021/04/23 10:45:35;;;;;;;9.27;5.57;;;13.90;82.90;;;;;;4983944;28;20801;-79
2021/04/23 10:48:23;;;;;;;6.13;5.17;;;14.00;82.60;;;;;;4983249;28;20970;-80
2021/04/23 10:50:51;;;;;;;9.97;6.20;;;14.00;81.90;;;;;;4981618;28;20485;-80
2021/04/23 10:53:19;;;;;;;6.57;5.83;;;14.00;81.50;;;;;;4984497;28;20523;-80
2021/04/23 10:55:49;;;;;;;13.93;6.07;;;14.00;81.20;;;;;;4980176;28;20475;-80
2021/04/23 10:58:35;;;;;;;10.03;5.60;;;14.00;78.90;;;;;;4976743;28;20998;-82
2021/04/23 11:01:03;;;;;;;8.17;5.47;;;14.00;79.80;;;;;;4980515;28;20898;-80
2021/04/23 11:03:32;;;;;;;7.97;5.23;;;14.00;81.10;;;;;;4982090;28;20466;-79
2021/04/23 11:06:01;;;;;;;9.43;5.70;;;14.10;81.00;;;;;;4985697;28;20490;-82
2021/04/23 11:08:29;;;;;;;6.80;6.07;;;14.10;80.50;;;;;;4984802;28;20523;-80
2021/04/23 11:11:17;;;;;;;5.67;5.07;;;14.00;80.00;;;;;;4984537;28;20859;-80
2021/04/23 11:13:46;;;;;;;6.70;5.77;;;14.10;81.20;;;;;;4978730;28;20540;-79
2021/04/23 11:16:35;;;;;;;8.50;5.27;;;14.00;80.10;;;;;;4984801;28;20466;-80
2021/04/23 11:19:37;;;;;;;13.20;5.40;;;14.00;80.70;;;;;;4975771;28;20572;-81
2021/04/23 11:22:12;;;;;;;5.40;4.80;;;14.10;80.50;;;;;;4979005;28;20969;-79
2021/04/23 11:24:39;;;;;;;7.93;5.63;;;14.10;80.80;;;;;;4982521;28;20468;-79
2021/04/23 11:27:11;;;;;;;12.83;5.13;;;14.20;81.50;;;;;;4983711;28;20492;-79
2021/04/23 11:29:41;;;;;;;8.90;5.90;;;14.30;81.20;;;;;;4983747;28;20553;-79
2021/04/23 11:32:16;;;;;;;8.67;4.83;;;14.40;81.10;;;;;;4980261;28;20562;-79
2021/04/23 11:34:44;;;;;;;9.73;6.20;;;14.50;80.20;;;;;;4978079;28;20463;-81
2021/04/23 11:37:13;;;;;;;8.53;5.47;;;14.40;80.20;;;;;;4984366;28;20512;-80
2021/04/23 11:39:43;;;;;;;15.37;6.50;;;14.40;81.20;;;;;;4985867;28;20513;-80
2021/04/23 11:42:16;;;;;;;8.57;6.40;;;14.50;81.00;;;;;;4980831;28;20465;-80
2021/04/23 11:44:46;;;;;;;6.00;5.40;;;14.40;78.30;;;;;;4976985;28;20473;-79
2021/04/23 11:47:13;;;;;;;7.37;4.90;;;14.30;78.90;;;;;;4978443;28;20500;-81
2021/04/23 11:49:40;;;;;;;10.20;5.67;;;14.30;79.00;;;;;;4980992;28;20471;-86
2021/04/23 11:52:07;;;;;;;9.33;5.30;;;14.40;79.40;;;;;;4984120;28;20455;-79
2021/04/23 11:54:36;;;;;;;10.60;8.00;;;14.40;80.20;;;;;;4986157;28;20472;-80
2021/04/23 11:57:04;;;;;;;7.70;5.10;;;14.50;79.20;;;;;;4981820;28;20472;-79
2021/04/23 12:00:16;;;;;;;8.47;6.13;;;14.50;78.60;;;;;;4981244;28;20980;-79
2021/04/23 12:02:46;;;;;;;9.33;6.40;;;14.40;79.60;;;;;;4983253;28;20475;-80
2021/04/23 12:05:28;;;;;;;8.77;7.03;;;14.40;79.00;;;;;;4984463;28;20500;-80
2021/04/23 12:07:56;;;;;;;7.77;6.30;;;14.30;78.10;;;;;;4986975;28;20494;-79
2021/04/23 12:10:25;;;;;;;7.47;5.40;;;14.30;78.90;;;;;;4984325;28;20724;-82
2021/04/23 12:13:34;;;;;;;10.77;5.70;;;14.20;78.80;;;;;;4987899;28;20463;-81
2021/04/23 12:16:03;;;;;;;8.30;6.00;;;14.30;79.40;;;;;;4978771;28;20565;-80
2021/04/23 12:18:31;;;;;;;6.73;5.27;;;14.40;79.40;;;;;;4988621;28;20494;-79
2021/04/23 12:21:00;;;;;;;9.07;5.37;;;14.40;79.10;;;;;;4986941;28;20533;-78
2021/04/23 12:23:28;;;;;;;13.97;5.77;;;14.40;78.50;;;;;;4984045;28;20482;-77
2021/04/23 12:25:58;;;;;;;6.93;5.60;;;14.30;77.30;;;;;;4983313;28;21118;-78
2021/04/23 12:28:32;;;;;;;6.50;5.80;;;14.40;78.90;;;;;;4984582;28;20492;-78
2021/04/23 12:31:03;;;;;;;6.83;6.23;;;14.50;78.60;;;;;;4985420;28;20554;-79
2021/04/23 12:33:42;;;;;;;7.63;5.20;;;14.40;78.60;;;;;;4986992;28;20467;-78
2021/04/23 12:36:15;;;;;;;7.07;5.43;;;14.40;79.10;;;;;;4987081;28;20523;-79
2021/04/23 12:38:43;;;;;;;6.90;5.70;;;14.40;79.00;;;;;;4980112;28;20465;-79
2021/04/23 12:41:31;;;;;;;7.50;5.53;;;14.40;79.50;;;;;;4981323;28;21230;-80
2021/04/23 12:44:00;;;;;;;8.43;4.90;;;14.30;78.90;;;;;;4981727;28;20566;-81
2021/04/23 12:46:33;;;;;;;13.00;5.40;;;14.40;79.30;;;;;;4972374;28;20490;-79
2021/04/23 12:49:07;;;;;;;5.93;5.03;;;14.40;77.80;;;;;;4977882;28;20465;-79
2021/04/23 12:51:36;;;;;;;8.30;5.00;;;14.40;77.50;;;;;;4983505;28;20472;-79
2021/04/23 12:54:04;;;;;;;9.57;4.93;;;14.50;77.50;;;;;;4982662;28;20473;-80
2021/04/23 12:56:30;;;;;;;8.27;5.60;;;14.50;76.50;;;;;;4979605;28;20477;-78
2021/04/23 12:58:57;;;;;;;5.50;5.00;;;14.40;75.50;;;;;;4978190;28;20478;-78